Terminal Aerodrome Forecast
Issued by NWS

Home | Current Version | Previous Version | Text Only | Print | Product List | Glossary On
Versions: 1 2 3 4 5 6 7 8 9 10 11 12 13 14
852
FTUS44 KLIX 211749
TAFMSY
TAF
KMSY 211749Z 2118/2224 09006KT P6SM SCT050 OVC090 PROB30 2203/2205
      4SM -SHRA BKN020
     FM220500 01005KT P6SM SCT015 OVC080 PROB30 2205/2207 4SM -SHRA
      BKN015
     FM220900 02009KT P6SM SCT020 BKN100
     FM221500 02013KT P6SM FEW035 SCT250=

USA.gov is the U.S. government's official web portal to all federal, state and local government web resources and services.